Albemarle, North Carolina
Current Conditions -  °F | °C
As of 12:35 PM on Tuesday 21 Oct 2014 (Local Time) from KVUJ Reporting Station
Clear Clear  
Wind Chill: 72°   Ceiling: Unl
Heat Index: 72°   Visibility: 10mi
Dew Point: 50°   Wind: 6mph
Humidity: 45%   Direction: 260°W
Pressure: 29.95"   Gusts: NA
Location:  35.35°N, 80.19°W
Report Text: KVUJ 211635Z AUTO 26005KT 10SM CLR 22/10 A2995 RMK AO2 LTG DSNT E T02210098
Loading
Personal Weather Stations






























Interactive Weather Map New forecast layout! Learn more

10-Day Weather Forecast

Advertisements
Track Severe Weather on mobile